createdAt,value
2018-08-19T00:03:06.918Z,25.43
2018-08-19T00:07:50.406Z,25.46
2018-08-19T00:12:44.737Z,25.30
2018-08-19T00:17:28.111Z,25.29
2018-08-19T00:22:12.591Z,25.39
2018-08-19T00:26:55.952Z,25.55
2018-08-19T00:31:42.382Z,25.33
2018-08-19T00:36:33.998Z,25.72
2018-08-19T00:41:17.381Z,25.57
2018-08-19T00:46:10.279Z,25.44
2018-08-19T00:50:53.918Z,25.60
2018-08-19T00:55:42.711Z,25.57
2018-08-19T01:00:28.799Z,25.38
2018-08-19T01:05:12.267Z,25.42
2018-08-19T01:09:56.560Z,25.54
2018-08-19T01:14:39.908Z,25.38
2018-08-19T01:19:23.414Z,25.41
2018-08-19T01:24:08.760Z,25.44
2018-08-19T01:28:54.974Z,25.42
2018-08-19T01:33:38.406Z,25.46
2018-08-19T01:38:21.916Z,25.34
2018-08-19T01:43:06.420Z,25.20
2018-08-19T01:47:49.750Z,25.14
2018-08-19T01:52:33.285Z,25.35
2018-08-19T01:57:16.587Z,25.28
2018-08-19T02:02:03.172Z,25.34
2018-08-19T02:06:46.580Z,25.45
2018-08-19T02:11:31.560Z,25.29
2018-08-19T02:16:15.314Z,25.47
2018-08-19T02:20:58.944Z,25.38
2018-08-19T02:25:48.596Z,25.28
2018-08-19T02:30:40.268Z,25.44
2018-08-19T02:35:23.700Z,25.17
2018-08-19T02:40:07.228Z,25.15
2018-08-19T02:44:52.692Z,25.51
2018-08-19T02:49:36.239Z,25.17
2018-08-19T02:54:19.595Z,25.25
2018-08-19T02:59:03.364Z,24.94
2018-08-19T03:03:46.709Z,25.02
2018-08-19T03:08:31.185Z,25.05
2018-08-19T03:13:14.585Z,25.13
2018-08-19T03:17:59.112Z,25.00
2018-08-19T03:22:43.692Z,24.93
2018-08-19T03:27:27.247Z,24.97
2018-08-19T03:32:11.825Z,25.01
2018-08-19T03:36:56.320Z,24.84
2018-08-19T03:41:40.011Z,24.97
2018-08-19T03:46:23.500Z,24.78
2018-08-19T03:51:08.201Z,24.86
2018-08-19T03:55:51.573Z,24.73
2018-08-19T04:00:41.856Z,24.77
2018-08-19T04:05:39.014Z,24.75
2018-08-19T04:10:23.577Z,24.80
2018-08-19T04:15:11.329Z,24.76
2018-08-19T04:19:58.514Z,24.79
2018-08-19T04:24:42.014Z,24.82
2018-08-19T04:29:30.596Z,24.81
2018-08-19T04:34:13.972Z,24.94
2018-08-19T04:38:57.449Z,24.99
2018-08-19T04:43:41.039Z,24.99
2018-08-19T04:48:26.250Z,24.97
2018-08-19T04:53:09.548Z,24.90
2018-08-19T04:57:53.206Z,25.11
2018-08-19T05:02:36.731Z,25.26
2018-08-19T05:07:20.156Z,25.40
2018-08-19T05:12:04.725Z,25.37
2018-08-19T05:16:48.086Z,25.39
2018-08-19T05:21:32.796Z,25.48
2018-08-19T05:26:16.353Z,25.54
2018-08-19T05:31:00.059Z,25.39
2018-08-19T05:35:43.412Z,25.46
2018-08-19T05:40:28.210Z,25.45
2018-08-19T05:45:11.695Z,25.65
2018-08-19T05:49:59.049Z,25.90
2018-08-19T06:05:02.181Z,26.21
2018-08-19T06:09:46.822Z,26.31
2018-08-19T06:14:34.364Z,26.35
2018-08-19T06:24:24.766Z,26.57
2018-08-19T06:29:08.303Z,26.68
2018-08-19T06:33:56.476Z,26.68
2018-08-19T06:38:43.486Z,26.87
2018-08-19T06:43:27.296Z,26.90
2018-08-19T06:48:12.023Z,27.05
2018-08-19T06:53:03.727Z,27.31
2018-08-19T06:57:47.333Z,27.35
2018-08-19T07:02:32.345Z,27.53
2018-08-19T07:07:30.112Z,27.77
2018-08-19T07:18:27.311Z,27.96
2018-08-19T07:23:12.135Z,28.14
2018-08-19T07:27:56.109Z,28.18
2018-08-19T07:32:40.500Z,28.21
2018-08-19T07:37:23.967Z,28.46
2018-08-19T07:42:08.566Z,28.41
2018-08-19T07:46:51.858Z,28.34
2018-08-19T07:51:37.010Z,28.52
2018-08-19T07:56:21.031Z,28.57
2018-08-19T08:01:04.601Z,28.68
2018-08-19T08:05:51.427Z,28.73
2018-08-19T08:10:38.364Z,29.18
2018-08-19T08:15:23.953Z,29.32
2018-08-19T08:20:08.420Z,29.20
2018-08-19T08:24:52.148Z,29.92
2018-08-19T08:29:35.746Z,28.69
2018-08-19T08:34:20.320Z,29.91
2018-08-19T08:39:06.491Z,29.70
2018-08-19T08:43:50.124Z,29.27
2018-08-19T08:48:35.946Z,30.40
2018-08-19T08:53:19.975Z,30.31
2018-08-19T08:58:03.604Z,29.82
2018-08-19T09:02:47.207Z,30.73
2018-08-19T09:07:30.567Z,30.00
2018-08-19T09:12:14.449Z,30.17
2018-08-19T09:16:59.247Z,30.98
2018-08-19T09:21:42.762Z,30.40
2018-08-19T09:26:27.489Z,30.80
2018-08-19T09:31:16.571Z,31.10
2018-08-19T09:35:59.940Z,30.70
2018-08-19T09:40:44.208Z,30.51
2018-08-19T09:45:27.610Z,30.43
2018-08-19T09:50:11.191Z,30.71
2018-08-19T09:54:57.865Z,31.27
2018-08-19T09:59:41.366Z,30.85
2018-08-19T10:04:26.098Z,29.96
2018-08-19T10:09:10.564Z,31.29
2018-08-19T10:13:58.355Z,31.58
2018-08-19T10:18:41.961Z,31.32
2018-08-19T10:23:25.384Z,30.14
2018-08-19T10:28:09.194Z,31.49
2018-08-19T10:33:01.729Z,30.43
2018-08-19T10:37:46.857Z,31.60
2018-08-19T10:42:32.000Z,30.55
2018-08-19T10:47:15.663Z,31.45
2018-08-19T10:51:59.455Z,30.91
2018-08-19T10:56:43.323Z,31.75
2018-08-19T11:01:28.023Z,31.72
2018-08-19T11:06:11.364Z,31.35
2018-08-19T11:10:55.247Z,31.05
2018-08-19T11:15:50.082Z,31.23
2018-08-19T11:20:37.381Z,26.86
2018-08-19T11:25:25.783Z,27.46
2018-08-19T11:30:09.640Z,27.23
2018-08-19T11:34:53.750Z,27.32
2018-08-19T11:39:48.637Z,26.08
2018-08-19T11:44:36.013Z,26.40
2018-08-19T11:49:20.358Z,26.12
2018-08-19T11:54:17.594Z,26.17
2018-08-19T11:59:01.599Z,26.45
2018-08-19T12:04:03.723Z,26.68
2018-08-19T12:10:16.185Z,27.06
2018-08-19T12:14:59.540Z,27.15
2018-08-19T12:19:46.380Z,25.31
2018-08-19T12:24:37.322Z,25.15
2018-08-19T12:29:21.623Z,27.29
2018-08-19T12:34:05.063Z,26.94
2018-08-19T12:38:48.602Z,25.45
2018-08-19T12:43:33.567Z,26.65
2018-08-19T12:48:21.060Z,24.65
2018-08-19T12:53:04.527Z,25.79
2018-08-19T12:57:53.370Z,26.52
2018-08-19T13:02:44.416Z,25.65
2018-08-19T13:07:31.160Z,26.59
2018-08-19T13:12:14.564Z,25.89
2018-08-19T13:16:59.084Z,25.63
2018-08-19T13:21:42.533Z,26.58
2018-08-19T13:26:28.185Z,25.98
2018-08-19T13:31:21.267Z,26.01
2018-08-19T13:36:04.728Z,26.13
2018-08-19T13:40:51.838Z,24.95
2018-08-19T13:45:35.233Z,25.39
2018-08-19T13:50:18.642Z,25.65
2018-08-19T13:55:04.074Z,25.64
2018-08-19T13:59:47.818Z,26.21
2018-08-19T14:04:31.169Z,25.97
2018-08-19T14:09:16.560Z,26.31
2018-08-19T14:14:00.006Z,26.66
2018-08-19T14:18:43.741Z,26.33
2018-08-19T14:23:27.176Z,25.83
2018-08-19T14:28:11.798Z,25.41
2018-08-19T14:32:55.221Z,25.59
2018-08-19T14:37:38.749Z,25.37
2018-08-19T14:42:22.625Z,25.25
2018-08-19T14:47:06.166Z,25.40
2018-08-19T14:51:59.573Z,26.47
2018-08-19T14:56:43.191Z,26.59
2018-08-19T15:01:26.619Z,26.88
2018-08-19T15:06:13.987Z,26.64
2018-08-19T15:11:02.619Z,26.07
2018-08-19T15:15:45.949Z,26.15
2018-08-19T15:20:36.932Z,26.38
2018-08-19T15:25:20.418Z,26.65
2018-08-19T15:30:03.891Z,26.89
2018-08-19T15:34:48.481Z,26.73
2018-08-19T15:39:32.137Z,26.68
2018-08-19T15:44:15.564Z,26.46
2018-08-19T15:48:59.109Z,25.83
2018-08-19T15:53:42.575Z,25.31
2018-08-19T15:58:32.003Z,25.43
2018-08-19T16:03:15.374Z,25.47
2018-08-19T16:07:58.869Z,25.39
2018-08-19T16:12:47.587Z,25.48
2018-08-19T16:17:31.140Z,25.75
2018-08-19T16:22:14.577Z,25.85
2018-08-19T16:26:59.124Z,25.72
2018-08-19T16:31:42.651Z,26.16
2018-08-19T16:36:26.327Z,26.06
2018-08-19T16:41:09.807Z,26.02
2018-08-19T16:45:54.245Z,26.01
2018-08-19T16:50:37.829Z,26.06
2018-08-19T16:55:21.306Z,25.85
2018-08-19T17:00:05.891Z,25.56
2018-08-19T17:04:49.285Z,25.69
2018-08-19T17:09:32.746Z,26.01
2018-08-19T17:14:16.258Z,25.91
2018-08-19T17:19:00.196Z,25.84
2018-08-19T17:23:47.388Z,25.95
2018-08-19T17:28:31.021Z,25.43
2018-08-19T17:33:14.786Z,25.17
2018-08-19T17:37:59.272Z,25.49
2018-08-19T17:42:43.777Z,25.67
2018-08-19T17:47:27.397Z,25.59
2018-08-19T17:52:10.975Z,25.72
2018-08-19T17:56:55.369Z,25.43
2018-08-19T18:01:42.605Z,25.30
2018-08-19T18:06:27.148Z,25.33
2018-08-19T18:11:10.653Z,25.58
2018-08-19T18:15:54.138Z,25.65
2018-08-19T18:20:39.226Z,25.13
2018-08-19T18:25:28.540Z,24.81
2018-08-19T18:30:14.545Z,24.00
2018-08-19T18:35:05.141Z,25.26
2018-08-19T18:39:54.105Z,24.97
2018-08-19T18:44:43.132Z,25.24
2018-08-19T18:49:35.524Z,25.60
2018-08-19T18:54:29.282Z,25.19
2018-08-19T18:59:12.694Z,25.41
2018-08-19T19:03:57.656Z,25.22
2018-08-19T19:08:42.234Z,25.42
2018-08-19T19:13:27.025Z,25.21
2018-08-19T19:18:12.949Z,24.98
2018-08-19T19:23:01.245Z,25.30
2018-08-19T19:27:44.977Z,25.32
2018-08-19T19:32:28.307Z,25.42
2018-08-19T19:37:12.653Z,25.42
2018-08-19T19:42:01.212Z,25.20
2018-08-19T19:46:45.654Z,24.97
2018-08-19T19:51:29.117Z,24.13
2018-08-19T19:56:17.784Z,24.74
2018-08-19T20:01:03.674Z,24.88
2018-08-19T20:05:48.056Z,24.92
2018-08-19T20:10:31.472Z,24.72
2018-08-19T20:15:15.039Z,24.82
2018-08-19T20:19:58.405Z,24.43
2018-08-19T20:24:41.852Z,23.88
2018-08-19T20:29:26.483Z,23.61
2018-08-19T20:34:09.917Z,23.62
2018-08-19T20:38:53.382Z,23.72
2018-08-19T20:43:36.847Z,24.32
2018-08-19T20:48:22.557Z,24.88
2018-08-19T20:53:06.005Z,24.63
2018-08-19T20:57:50.459Z,24.84
2018-08-19T21:02:33.795Z,24.96
2018-08-19T21:07:17.228Z,24.61
2018-08-19T21:12:00.624Z,24.48
2018-08-19T21:16:44.195Z,24.65
2018-08-19T21:21:27.610Z,24.48
2018-08-19T21:26:11.391Z,24.69
2018-08-19T21:30:54.997Z,24.42
2018-08-19T21:35:43.953Z,24.35
2018-08-19T21:40:31.739Z,24.43
2018-08-19T21:45:16.224Z,24.51
2018-08-19T21:49:59.725Z,24.41
2018-08-19T21:54:43.319Z,24.70
2018-08-19T21:59:26.912Z,24.41
2018-08-19T22:04:10.311Z,24.22
2018-08-19T22:08:53.896Z,24.01
2018-08-19T22:13:37.276Z,23.97
2018-08-19T22:18:22.410Z,24.16
2018-08-19T22:23:06.529Z,24.27
2018-08-19T22:27:49.983Z,24.26
2018-08-19T22:32:34.547Z,24.29
2018-08-19T22:37:17.993Z,23.91
2018-08-19T22:42:01.391Z,24.27
2018-08-19T22:46:44.876Z,24.34
2018-08-19T22:51:32.054Z,24.04
2018-08-19T22:56:15.501Z,24.36
2018-08-19T23:00:58.938Z,24.42
2018-08-19T23:05:43.348Z,24.44
2018-08-19T23:10:26.789Z,24.07
2018-08-19T23:15:21.980Z,24.02
2018-08-19T23:20:05.368Z,24.14
2018-08-19T23:24:50.007Z,24.07
2018-08-19T23:29:33.328Z,23.99
2018-08-19T23:34:16.793Z,23.95
2018-08-19T23:39:00.366Z,23.76
2018-08-19T23:43:43.796Z,23.69
2018-08-19T23:48:28.089Z,23.72
2018-08-19T23:53:12.311Z,23.94
2018-08-19T23:57:55.761Z,23.83
